Midway, Washington
Current Conditions -  °F | °C
As of 1:53 PM on Thursday 18 Dec 2014 (Local Time) from KSEA Reporting Station
Overcast Overcast  
Wind Chill: 46°   Ceiling: 3400
Heat Index: 49°   Visibility: 10mi
Dew Point: 41°   Wind: 7mph
Humidity: 74%   Direction: 140°SE
Pressure: 29.83"   Gusts: NA
Location:  47.3871°N, 122.202°W
Report Text: KSEA 182153Z 14006KT 10SM BKN034 OVC060 09/05 A2983 RMK AO2 RAE01 SLP107 P0000 T00940050
Loading
Personal Weather Stations






























Interactive Weather Map New forecast layout! Learn more

10-Day Weather Forecast

Advertisements
Track Severe Weather on mobile